createdAt,value
2019-03-22T00:01:40.543Z,69.30
2019-03-22T00:04:07.158Z,68.70
2019-03-22T00:06:33.861Z,68.33
2019-03-22T00:09:00.470Z,70.27
2019-03-22T00:11:27.476Z,68.23
2019-03-22T00:13:54.286Z,73.23
2019-03-22T00:16:22.275Z,69.73
2019-03-22T00:18:48.926Z,70.47
2019-03-22T00:21:15.479Z,71.27
2019-03-22T00:23:42.128Z,72.47
2019-03-22T00:26:08.769Z,74.37
2019-03-22T00:28:35.448Z,72.90
2019-03-22T00:31:02.059Z,71.20
2019-03-22T00:33:30.119Z,73.40
2019-03-22T00:35:56.770Z,71.03
2019-03-22T00:38:23.603Z,74.23
2019-03-22T00:40:50.377Z,71.97
2019-03-22T00:43:17.245Z,73.53
2019-03-22T00:45:43.852Z,74.60
2019-03-22T00:48:10.401Z,70.83
2019-03-22T00:50:37.039Z,74.57
2019-03-22T00:53:03.741Z,74.57
2019-03-22T00:55:30.454Z,76.50
2019-03-22T00:57:57.219Z,75.73
2019-03-22T01:00:23.841Z,75.03
2019-03-22T01:02:50.461Z,72.43
2019-03-22T01:05:17.221Z,75.03
2019-03-22T01:07:44.096Z,72.93
2019-03-22T01:10:12.332Z,73.20
2019-03-22T01:12:39.188Z,73.87
2019-03-22T01:15:08.363Z,79.17
2019-03-22T01:17:35.088Z,74.57
2019-03-22T01:20:06.537Z,76.43
2019-03-22T01:22:33.162Z,74.17
2019-03-22T01:25:00.506Z,74.00
2019-03-22T01:27:27.315Z,72.87
2019-03-22T01:29:54.057Z,77.47
2019-03-22T01:32:20.678Z,78.93
2019-03-22T01:34:47.418Z,77.27
2019-03-22T01:37:14.228Z,75.47
2019-03-22T01:39:40.859Z,75.77
2019-03-22T01:42:07.527Z,75.57
2019-03-22T01:44:34.155Z,74.30
2019-03-22T01:47:00.831Z,78.30
2019-03-22T01:49:27.569Z,79.60
2019-03-22T01:51:54.425Z,76.47
2019-03-22T01:54:21.040Z,77.40
2019-03-22T01:56:48.019Z,73.47
2019-03-22T01:59:14.703Z,76.57
2019-03-22T02:01:41.536Z,74.90
2019-03-22T02:04:08.223Z,77.10
2019-03-22T02:06:35.173Z,76.03
2019-03-22T02:09:02.681Z,75.40
2019-03-22T02:11:30.222Z,76.90
2019-03-22T02:13:56.916Z,79.40
2019-03-22T02:16:24.651Z,77.33
2019-03-22T02:18:51.314Z,78.47
2019-03-22T02:21:18.025Z,76.67
2019-03-22T02:23:44.671Z,80.40
2019-03-22T02:26:11.399Z,80.80
2019-03-22T02:28:39.144Z,78.73
2019-03-22T02:31:05.880Z,76.30
2019-03-22T02:33:32.510Z,79.83
2019-03-22T02:35:59.172Z,75.30
2019-03-22T02:38:27.102Z,76.97
2019-03-22T02:40:54.074Z,82.70
2019-03-22T02:43:20.676Z,77.33
2019-03-22T02:45:47.634Z,81.50
2019-03-22T02:48:14.270Z,78.50
2019-03-22T02:50:40.888Z,76.73
2019-03-22T02:53:07.510Z,77.47
2019-03-22T02:55:34.682Z,80.10
2019-03-22T02:58:01.548Z,79.37
2019-03-22T03:00:28.265Z,78.23
2019-03-22T03:02:55.001Z,82.57
2019-03-22T03:05:21.603Z,81.40
2019-03-22T03:07:48.443Z,80.00
2019-03-22T03:10:15.584Z,83.50
2019-03-22T03:12:43.044Z,83.23
2019-03-22T03:15:14.513Z,79.10
2019-03-22T03:17:41.169Z,79.43
2019-03-22T03:20:11.666Z,83.73
2019-03-22T03:22:38.584Z,83.03
2019-03-22T03:25:06.870Z,83.13
2019-03-22T03:27:33.515Z,79.50
2019-03-22T03:30:00.658Z,82.57
2019-03-22T03:32:27.472Z,80.87
2019-03-22T03:34:54.129Z,82.00
2019-03-22T03:37:20.793Z,78.77
2019-03-22T03:39:51.443Z,82.80
2019-03-22T03:42:18.519Z,83.40
2019-03-22T03:44:45.204Z,82.30
2019-03-22T03:47:12.042Z,80.83
2019-03-22T03:49:38.742Z,83.47
2019-03-22T03:52:05.374Z,85.73
2019-03-22T03:54:31.987Z,85.20
2019-03-22T03:56:58.960Z,86.20
2019-03-22T03:59:25.534Z,87.00
2019-03-22T04:01:52.198Z,85.80
2019-03-22T04:04:18.900Z,84.90
2019-03-22T04:06:45.658Z,87.23
2019-03-22T04:09:12.430Z,80.80
2019-03-22T04:11:39.020Z,86.73
2019-03-22T04:14:05.559Z,85.43
2019-03-22T04:16:32.300Z,83.47
2019-03-22T04:18:59.060Z,85.10
2019-03-22T04:21:25.785Z,89.07
2019-03-22T04:23:52.537Z,83.40
2019-03-22T04:26:19.188Z,86.17
2019-03-22T04:28:45.770Z,86.50
2019-03-22T04:31:12.420Z,82.50
2019-03-22T04:33:39.057Z,84.90
2019-03-22T04:36:05.615Z,82.63
2019-03-22T04:38:32.252Z,84.70
2019-03-22T04:40:58.867Z,87.20
2019-03-22T04:43:25.866Z,83.93
2019-03-22T04:45:53.636Z,84.03
2019-03-22T04:48:27.058Z,80.67
2019-03-22T04:50:57.481Z,82.70
2019-03-22T04:53:26.586Z,81.80
2019-03-22T04:55:56.098Z,81.53
2019-03-22T04:58:23.246Z,86.37
2019-03-22T05:00:50.656Z,82.87
2019-03-22T05:03:18.906Z,82.77
2019-03-22T05:05:46.399Z,81.53
2019-03-22T05:08:14.730Z,77.00
2019-03-22T05:10:42.562Z,70.97
2019-03-22T05:13:11.512Z,71.27
2019-03-22T05:15:40.502Z,67.20
2019-03-22T05:18:07.908Z,64.83
2019-03-22T05:20:35.694Z,66.67
2019-03-22T05:23:03.421Z,68.10
2019-03-22T05:25:31.586Z,73.97
2019-03-22T05:27:58.810Z,71.33
2019-03-22T05:30:50.554Z,72.43
2019-03-22T05:33:17.201Z,69.83
2019-03-22T05:35:43.794Z,77.47
2019-03-22T05:38:10.816Z,74.60
2019-03-22T05:40:38.515Z,72.73
2019-03-22T05:43:06.421Z,71.70
2019-03-22T05:45:33.036Z,76.20
2019-03-22T05:47:59.776Z,75.60
2019-03-22T05:50:26.578Z,76.30
2019-03-22T05:52:53.265Z,75.83
2019-03-22T05:55:19.922Z,76.13
2019-03-22T05:57:46.604Z,76.00
2019-03-22T06:00:15.327Z,73.87
2019-03-22T06:02:42.003Z,75.83
2019-03-22T06:05:08.652Z,74.07
2019-03-22T06:07:37.083Z,77.83
2019-03-22T06:10:05.581Z,74.57
2019-03-22T06:12:32.218Z,76.67
2019-03-22T06:14:58.952Z,72.67
2019-03-22T06:17:25.698Z,71.17
2019-03-22T06:19:52.296Z,75.73
2019-03-22T06:22:18.913Z,76.37
2019-03-22T06:24:45.552Z,73.83
2019-03-22T06:27:12.202Z,76.60
2019-03-22T06:29:38.944Z,69.93
2019-03-22T06:32:05.688Z,75.73
2019-03-22T06:34:32.298Z,70.93
2019-03-22T06:36:58.924Z,72.07
2019-03-22T06:39:25.676Z,74.40
2019-03-22T06:41:52.456Z,73.27
2019-03-22T06:44:19.131Z,73.60
2019-03-22T06:46:45.813Z,72.60
2019-03-22T06:49:26.022Z,71.87
2019-03-22T06:51:52.758Z,72.07
2019-03-22T06:54:31.124Z,73.67
2019-03-22T06:56:48.234Z,71.80
2019-03-22T06:59:14.938Z,68.13
2019-03-22T07:01:41.849Z,69.23
2019-03-22T07:04:08.607Z,72.77
2019-03-22T07:06:35.716Z,69.67
2019-03-22T07:09:06.351Z,70.33
2019-03-22T07:11:32.944Z,65.20
2019-03-22T07:13:59.830Z,67.43
2019-03-22T07:16:26.830Z,67.70
2019-03-22T07:18:55.391Z,69.40
2019-03-22T07:21:22.106Z,69.80
2019-03-22T07:23:50.268Z,70.53
2019-03-22T07:26:17.017Z,71.33
2019-03-22T07:28:44.108Z,67.90
2019-03-22T07:31:10.648Z,71.83
2019-03-22T07:33:38.413Z,72.43
2019-03-22T07:36:07.116Z,72.23
2019-03-22T07:38:33.773Z,72.97
2019-03-22T07:41:00.416Z,69.80
2019-03-22T07:43:27.019Z,72.90
2019-03-22T07:45:53.792Z,68.90
2019-03-22T07:48:20.623Z,68.07
2019-03-22T07:50:47.224Z,67.83
2019-03-22T07:53:13.830Z,67.60
2019-03-22T07:55:40.369Z,64.17
2019-03-22T07:58:07.009Z,66.40
2019-03-22T08:00:33.988Z,69.80
2019-03-22T08:03:00.716Z,66.23
2019-03-22T08:05:27.324Z,65.93
2019-03-22T08:07:56.027Z,66.73
2019-03-22T08:10:22.442Z,65.43
2019-03-22T08:12:49.249Z,65.23
2019-03-22T08:15:27.872Z,66.47
2019-03-22T08:17:56.974Z,62.90
2019-03-22T08:20:23.647Z,65.27
2019-03-22T08:22:50.594Z,62.40
2019-03-22T08:25:17.167Z,61.93
2019-03-22T08:27:43.867Z,60.50
2019-03-22T08:30:10.806Z,60.40
2019-03-22T08:32:37.656Z,57.43
2019-03-22T08:35:04.794Z,53.20
2019-03-22T08:37:31.426Z,56.60
2019-03-22T08:39:58.046Z,52.13
2019-03-22T08:42:24.885Z,53.50
2019-03-22T08:44:51.667Z,54.80
2019-03-22T08:47:18.277Z,53.37
2019-03-22T08:49:45.189Z,52.87
2019-03-22T08:52:12.294Z,52.90
2019-03-22T08:54:39.003Z,51.57
2019-03-22T08:57:05.646Z,53.20
2019-03-22T08:59:32.289Z,53.63
2019-03-22T09:01:59.056Z,51.53
2019-03-22T09:04:25.788Z,50.67
2019-03-22T09:06:52.617Z,49.93
2019-03-22T09:09:19.467Z,51.47
2019-03-22T09:11:46.331Z,48.67
2019-03-22T09:14:12.976Z,48.57
2019-03-22T09:16:39.685Z,50.47
2019-03-22T09:19:07.456Z,49.23
2019-03-22T09:21:34.341Z,48.40
2019-03-22T09:24:00.915Z,50.40
2019-03-22T09:26:28.641Z,47.63
2019-03-22T09:28:55.434Z,46.30
2019-03-22T09:31:22.054Z,45.43
2019-03-22T09:33:49.095Z,46.90
2019-03-22T09:36:15.817Z,40.70
2019-03-22T09:38:42.735Z,43.30
2019-03-22T09:41:09.310Z,47.80
2019-03-22T09:43:36.241Z,45.50
2019-03-22T09:46:02.891Z,37.37
2019-03-22T09:48:29.523Z,41.20
2019-03-22T09:50:56.313Z,41.93
2019-03-22T09:53:23.075Z,35.17
2019-03-22T09:55:50.711Z,33.57
2019-03-22T09:58:17.518Z,32.80
2019-03-22T10:00:44.303Z,33.53
2019-03-22T10:03:11.195Z,36.07
2019-03-22T10:05:37.976Z,35.47
2019-03-22T10:08:04.732Z,34.60
2019-03-22T10:10:31.729Z,33.93
2019-03-22T10:12:58.374Z,33.93
2019-03-22T10:15:25.263Z,27.60
2019-03-22T10:17:53.797Z,26.97
2019-03-22T10:20:20.535Z,28.67
2019-03-22T10:22:47.309Z,26.57
2019-03-22T10:25:13.951Z,28.83
2019-03-22T10:27:40.607Z,29.13
2019-03-22T10:30:11.262Z,28.50
2019-03-22T10:32:38.962Z,29.63
2019-03-22T10:35:06.011Z,28.83
2019-03-22T10:37:32.875Z,27.03
2019-03-22T10:39:59.460Z,21.30
2019-03-22T10:42:26.122Z,21.47
2019-03-22T10:44:53.178Z,21.83
2019-03-22T10:47:19.802Z,19.60
2019-03-22T10:49:46.444Z,18.47
2019-03-22T10:52:13.061Z,18.80
2019-03-22T10:54:39.665Z,19.83
2019-03-22T10:57:06.642Z,17.27
2019-03-22T10:59:34.428Z,17.13
2019-03-22T11:02:03.631Z,19.13
2019-03-22T11:04:29.631Z,19.17
2019-03-22T11:06:56.339Z,18.80
2019-03-22T11:09:22.975Z,24.57
2019-03-22T11:11:49.604Z,19.87
2019-03-22T11:14:16.259Z,23.60
2019-03-22T11:16:43.276Z,25.83
2019-03-22T11:19:09.885Z,22.03
2019-03-22T11:21:36.525Z,24.20
2019-03-22T11:24:03.767Z,23.80
2019-03-22T11:26:31.669Z,22.07
2019-03-22T11:28:58.417Z,26.87
2019-03-22T11:31:28.611Z,22.77
2019-03-22T11:33:53.743Z,27.87
2019-03-22T11:36:20.587Z,27.10
2019-03-22T11:38:47.233Z,24.73
2019-03-22T11:41:13.867Z,26.37
2019-03-22T11:43:43.165Z,25.17
2019-03-22T11:46:09.801Z,26.13
2019-03-22T11:48:36.539Z,25.33
2019-03-22T11:51:04.050Z,24.97
2019-03-22T11:53:30.831Z,24.07
2019-03-22T11:55:57.541Z,24.13
2019-03-22T11:58:24.562Z,22.20
2019-03-22T12:00:51.297Z,23.07
2019-03-22T12:03:18.008Z,18.57
2019-03-22T12:05:44.841Z,20.93
2019-03-22T12:08:12.291Z,20.67
2019-03-22T12:10:38.921Z,22.13
2019-03-22T12:13:05.547Z,18.43
2019-03-22T12:15:32.541Z,17.13
2019-03-22T12:17:59.157Z,18.40
2019-03-22T12:20:26.465Z,17.07
2019-03-22T12:22:53.185Z,20.03
2019-03-22T12:25:22.959Z,21.97
2019-03-22T12:27:49.800Z,20.60
2019-03-22T12:30:17.217Z,21.40
2019-03-22T12:32:43.857Z,20.63
2019-03-22T12:35:12.111Z,20.77
2019-03-22T12:37:39.831Z,18.80
2019-03-22T12:40:20.559Z,18.37
2019-03-22T12:42:47.765Z,18.83
2019-03-22T12:45:17.895Z,19.00
2019-03-22T12:47:44.670Z,20.37
2019-03-22T12:50:12.933Z,19.67
2019-03-22T12:52:39.680Z,15.23
2019-03-22T12:55:07.513Z,14.80
2019-03-22T12:57:34.235Z,17.07
2019-03-22T13:00:01.053Z,16.57
2019-03-22T13:02:27.918Z,12.80
2019-03-22T13:04:54.645Z,13.50
2019-03-22T13:07:21.270Z,12.17
2019-03-22T13:09:47.981Z,14.77
2019-03-22T13:12:14.502Z,14.10
2019-03-22T13:14:41.108Z,14.60
2019-03-22T13:17:08.209Z,12.90
2019-03-22T13:19:35.955Z,19.50
2019-03-22T13:22:02.790Z,11.43
2019-03-22T13:24:29.497Z,11.40
2019-03-22T13:26:56.207Z,10.97
2019-03-22T13:29:22.931Z,10.37
2019-03-22T13:31:49.649Z,12.00
2019-03-22T13:34:16.363Z,13.20
2019-03-22T13:36:42.979Z,12.37
2019-03-22T13:39:09.869Z,12.03
2019-03-22T13:41:36.570Z,13.20
2019-03-22T13:44:03.423Z,13.00
2019-03-22T13:46:39.769Z,13.83
2019-03-22T13:48:58.847Z,12.27
2019-03-22T13:51:25.499Z,11.73
2019-03-22T13:53:52.261Z,11.77
2019-03-22T13:56:18.928Z,11.57
2019-03-22T13:58:45.591Z,12.33
2019-03-22T14:01:12.202Z,11.60
2019-03-22T14:03:39.935Z,11.70
2019-03-22T14:06:06.631Z,11.70
2019-03-22T14:08:33.340Z,11.80
2019-03-22T14:10:59.963Z,10.17
2019-03-22T14:13:26.578Z,9.13
2019-03-22T14:15:53.231Z,9.87
2019-03-22T14:18:19.933Z,9.90
2019-03-22T14:20:46.654Z,9.27
2019-03-22T14:23:13.593Z,9.67
2019-03-22T14:25:40.337Z,11.00
2019-03-22T14:28:06.934Z,12.13
2019-03-22T14:30:33.703Z,11.07
2019-03-22T14:33:01.017Z,12.17
2019-03-22T14:35:28.520Z,12.67
2019-03-22T14:37:55.367Z,12.00
2019-03-22T14:40:21.995Z,15.17
2019-03-22T14:42:48.642Z,11.83
2019-03-22T14:45:15.521Z,12.03
2019-03-22T14:47:42.809Z,12.23
2019-03-22T14:50:10.261Z,13.67
2019-03-22T14:52:36.905Z,12.37
2019-03-22T14:55:04.899Z,14.27
2019-03-22T14:57:31.518Z,14.17
2019-03-22T14:59:59.238Z,14.50
2019-03-22T15:02:26.057Z,14.37
2019-03-22T15:04:52.717Z,13.93
2019-03-22T15:07:20.211Z,14.50
2019-03-22T15:09:46.960Z,14.87
2019-03-22T15:12:13.795Z,17.80
2019-03-22T15:14:48.517Z,16.57
2019-03-22T15:17:20.450Z,16.43
2019-03-22T15:19:54.752Z,17.13
2019-03-22T15:22:26.060Z,18.47
2019-03-22T15:25:09.731Z,18.20
2019-03-22T15:27:41.326Z,19.23
2019-03-22T15:30:16.546Z,20.47
2019-03-22T15:33:02.285Z,19.07
2019-03-22T15:35:30.892Z,19.80
2019-03-22T15:38:05.442Z,18.33
2019-03-22T15:40:32.058Z,20.20
2019-03-22T15:42:58.862Z,20.50
2019-03-22T15:45:25.704Z,20.73
2019-03-22T15:47:52.492Z,20.10
2019-03-22T15:50:19.312Z,19.50
2019-03-22T15:52:46.073Z,21.33
2019-03-22T15:55:13.316Z,21.37
2019-03-22T15:57:39.872Z,19.13
2019-03-22T16:00:13.416Z,19.53
2019-03-22T16:02:41.587Z,16.53
2019-03-22T16:05:08.744Z,17.93
2019-03-22T16:07:35.621Z,17.90
2019-03-22T16:10:04.750Z,16.37
2019-03-22T16:12:31.400Z,13.73
2019-03-22T16:14:58.143Z,13.40
2019-03-22T16:17:25.880Z,12.13
2019-03-22T16:19:52.606Z,12.50
2019-03-22T16:22:19.621Z,12.40
2019-03-22T16:24:46.481Z,12.60
2019-03-22T16:27:13.319Z,33.40
2019-03-22T16:29:40.068Z,19.93
2019-03-22T16:32:06.862Z,12.63
2019-03-22T16:34:33.830Z,11.47
2019-03-22T16:37:02.361Z,12.60
2019-03-22T16:39:29.101Z,12.23
2019-03-22T16:41:59.886Z,12.73
2019-03-22T16:44:27.331Z,14.47
2019-03-22T16:46:54.096Z,13.20
2019-03-22T16:49:20.762Z,13.73
2019-03-22T16:51:47.686Z,12.77
2019-03-22T16:54:14.392Z,13.63
2019-03-22T16:56:41.052Z,15.27
2019-03-22T16:59:07.682Z,13.70
2019-03-22T17:01:34.306Z,15.23
2019-03-22T17:04:04.730Z,14.07
2019-03-22T17:06:31.660Z,11.93
2019-03-22T17:09:00.282Z,12.97
2019-03-22T17:11:26.877Z,12.80
2019-03-22T17:13:53.622Z,13.07
2019-03-22T17:16:20.290Z,15.07
2019-03-22T17:18:47.025Z,14.80
2019-03-22T17:21:13.674Z,15.60
2019-03-22T17:23:40.302Z,16.37
2019-03-22T17:26:07.930Z,16.80
2019-03-22T17:28:34.806Z,16.23
2019-03-22T17:31:01.476Z,16.87
2019-03-22T17:33:28.493Z,15.17
2019-03-22T17:35:56.513Z,15.33
2019-03-22T17:38:23.343Z,17.13
2019-03-22T17:40:50.005Z,18.37
2019-03-22T17:43:18.250Z,17.07
2019-03-22T17:45:44.951Z,16.37
2019-03-22T17:48:11.827Z,19.30
2019-03-22T17:50:38.541Z,19.27
2019-03-22T17:53:05.419Z,22.03
2019-03-22T17:55:32.279Z,22.27
2019-03-22T17:57:59.313Z,24.73
2019-03-22T18:00:27.420Z,22.50
2019-03-22T18:02:54.230Z,25.30
2019-03-22T18:05:21.104Z,26.43
2019-03-22T18:07:48.044Z,26.43
2019-03-22T18:10:15.014Z,31.67
2019-03-22T18:12:41.691Z,29.87
2019-03-22T18:15:10.155Z,31.57
2019-03-22T18:17:36.984Z,32.40
2019-03-22T18:20:09.883Z,33.17
2019-03-22T18:22:36.525Z,33.67
2019-03-22T18:25:05.623Z,32.93
2019-03-22T18:27:32.461Z,32.53
2019-03-22T18:30:00.805Z,35.17
2019-03-22T18:32:28.255Z,34.03
2019-03-22T18:34:54.917Z,33.87
2019-03-22T18:37:21.636Z,35.97
2019-03-22T18:39:48.932Z,32.63
2019-03-22T18:42:15.821Z,34.23
2019-03-22T18:44:42.471Z,33.60
2019-03-22T18:47:09.263Z,33.13
2019-03-22T18:49:36.031Z,33.40
2019-03-22T18:52:03.096Z,35.73
2019-03-22T18:54:29.680Z,34.97
2019-03-22T18:56:56.382Z,37.67
2019-03-22T18:59:23.211Z,35.57
2019-03-22T19:01:49.869Z,35.47
2019-03-22T19:04:16.588Z,39.93
2019-03-22T19:06:43.226Z,37.97
2019-03-22T19:09:10.244Z,35.20
2019-03-22T19:11:50.469Z,36.70
2019-03-22T19:14:17.185Z,43.60
2019-03-22T19:16:43.801Z,37.03
2019-03-22T19:19:11.685Z,42.93
2019-03-22T19:21:38.413Z,46.90
2019-03-22T19:24:05.352Z,54.23
2019-03-22T19:26:33.225Z,55.47
2019-03-22T19:29:00.187Z,59.03
2019-03-22T19:31:26.833Z,61.37
2019-03-22T19:33:53.603Z,61.13
2019-03-22T19:36:20.220Z,62.40
2019-03-22T19:38:46.847Z,60.47
2019-03-22T19:41:13.740Z,61.60
2019-03-22T19:43:41.745Z,67.37
2019-03-22T19:46:08.537Z,68.73
2019-03-22T19:48:35.266Z,74.00
2019-03-22T19:51:02.870Z,73.03
2019-03-22T19:53:29.513Z,74.70
2019-03-22T19:55:56.252Z,74.97
2019-03-22T19:58:24.804Z,79.63
2019-03-22T20:00:51.877Z,75.43
2019-03-22T20:03:18.678Z,77.93
2019-03-22T20:05:46.273Z,80.30
2019-03-22T20:08:13.969Z,83.23
2019-03-22T20:10:40.925Z,80.43
2019-03-22T20:13:08.652Z,83.97
2019-03-22T20:15:36.370Z,82.23
2019-03-22T20:18:03.289Z,84.50
2019-03-22T20:20:30.110Z,79.27
2019-03-22T20:22:58.741Z,86.93
2019-03-22T20:25:25.515Z,86.17
2019-03-22T20:27:52.159Z,82.17
2019-03-22T20:30:19.105Z,84.23
2019-03-22T20:32:47.913Z,88.87
2019-03-22T20:35:16.707Z,86.17
2019-03-22T20:37:43.281Z,90.50
2019-03-22T20:40:12.857Z,87.83
2019-03-22T20:42:39.598Z,88.50
2019-03-22T20:45:06.533Z,85.33
2019-03-22T20:47:33.075Z,89.00
2019-03-22T20:49:59.920Z,87.17
2019-03-22T20:52:26.656Z,96.83
2019-03-22T20:54:53.393Z,88.07
2019-03-22T20:57:20.265Z,89.80
2019-03-22T20:59:47.281Z,91.03
2019-03-22T21:02:13.902Z,91.40
2019-03-22T21:04:40.659Z,93.53
2019-03-22T21:07:07.293Z,89.57
2019-03-22T21:09:34.151Z,92.27
2019-03-22T21:12:00.872Z,95.57
2019-03-22T21:14:27.508Z,87.27
2019-03-22T21:16:54.212Z,89.37
2019-03-22T21:19:21.135Z,92.73
2019-03-22T21:21:47.910Z,90.83
2019-03-22T21:24:14.810Z,90.97
2019-03-22T21:26:41.464Z,90.90
2019-03-22T21:29:08.178Z,90.13
2019-03-22T21:31:35.086Z,93.27
2019-03-22T21:34:02.973Z,89.13
2019-03-22T21:36:29.909Z,88.90
2019-03-22T21:38:56.714Z,89.10
2019-03-22T21:41:23.331Z,85.53
2019-03-22T21:43:50.191Z,85.37
2019-03-22T21:46:17.049Z,91.27
2019-03-22T21:48:43.822Z,96.03
2019-03-22T21:51:10.455Z,93.93
2019-03-22T21:53:37.250Z,103.83
2019-03-22T21:56:04.015Z,103.73
2019-03-22T21:58:30.718Z,109.43
2019-03-22T22:00:57.499Z,106.27
2019-03-22T22:03:24.330Z,113.90
2019-03-22T22:05:51.230Z,113.47
2019-03-22T22:08:17.972Z,119.87
2019-03-22T22:10:44.610Z,126.90
2019-03-22T22:13:11.297Z,126.23
2019-03-22T22:15:38.124Z,120.97
2019-03-22T22:18:05.844Z,126.80
2019-03-22T22:20:34.586Z,125.93
2019-03-22T22:23:01.261Z,124.43
2019-03-22T22:25:27.899Z,135.03
2019-03-22T22:27:54.635Z,132.50
2019-03-22T22:30:21.396Z,135.77
2019-03-22T22:32:48.346Z,129.47
2019-03-22T22:35:15.077Z,129.97
2019-03-22T22:37:41.991Z,125.63
2019-03-22T22:40:10.069Z,127.77
2019-03-22T22:42:37.171Z,130.30
2019-03-22T22:45:08.891Z,122.63
2019-03-22T22:47:35.947Z,132.17
2019-03-22T22:50:04.790Z,125.93
2019-03-22T22:52:31.423Z,124.37
2019-03-22T22:54:58.051Z,130.10
2019-03-22T22:57:24.820Z,126.40
2019-03-22T22:59:54.130Z,135.33
2019-03-22T23:02:20.863Z,136.37
2019-03-22T23:05:00.788Z,131.23
2019-03-22T23:07:27.416Z,127.37
2019-03-22T23:09:54.262Z,129.70
2019-03-22T23:12:20.914Z,126.63
2019-03-22T23:14:47.563Z,129.67
2019-03-22T23:17:14.208Z,136.23
2019-03-22T23:19:40.850Z,129.93
2019-03-22T23:22:09.590Z,134.40
2019-03-22T23:24:36.334Z,138.83
2019-03-22T23:27:04.227Z,117.67
2019-03-22T23:29:31.130Z,112.13
2019-03-22T23:31:57.958Z,102.53
2019-03-22T23:34:24.853Z,101.27
2019-03-22T23:36:52.811Z,99.30
2019-03-22T23:39:19.830Z,102.67
2019-03-22T23:41:47.381Z,103.93
2019-03-22T23:44:14.412Z,101.17
2019-03-22T23:46:41.346Z,100.77
2019-03-22T23:49:08.186Z,101.80
2019-03-22T23:51:35.077Z,96.73
2019-03-22T23:54:01.806Z,99.93
2019-03-22T23:56:28.698Z,101.13
2019-03-22T23:58:55.500Z,97.20
